createdAt,value
2019-02-04T00:01:22.956Z,97809.09
2019-02-04T00:03:52.427Z,97814.91
2019-02-04T00:06:21.548Z,97813.01
2019-02-04T00:08:50.649Z,97803.97
2019-02-04T00:11:19.792Z,97804.30
2019-02-04T00:13:48.887Z,97807.81
2019-02-04T00:16:18.310Z,97804.81
2019-02-04T00:18:47.607Z,97806.33
2019-02-04T00:21:16.720Z,97805.84
2019-02-04T00:23:45.812Z,97804.59
2019-02-04T00:26:15.510Z,97812.67
2019-02-04T00:28:44.625Z,97806.19
2019-02-04T00:31:13.741Z,97799.63
2019-02-04T00:33:42.827Z,97795.45
2019-02-04T00:36:12.037Z,97796.73
2019-02-04T00:38:41.139Z,97794.38
2019-02-04T00:41:10.241Z,97791.86
2019-02-04T00:43:39.372Z,97793.46
2019-02-04T00:46:08.456Z,97795.00
2019-02-04T00:48:37.597Z,97793.16
2019-02-04T00:51:06.721Z,97794.38
2019-02-04T00:53:35.915Z,97792.58
2019-02-04T00:56:05.165Z,97798.54
2019-02-04T00:58:34.286Z,97801.08
2019-02-04T01:01:03.386Z,97804.32
2019-02-04T01:03:32.508Z,97807.16
2019-02-04T01:06:01.604Z,97809.08
2019-02-04T01:08:30.729Z,97813.27
2019-02-04T01:10:59.913Z,97815.94
2019-02-04T01:13:29.062Z,97822.95
2019-02-04T01:15:58.170Z,97817.58
2019-02-04T01:18:27.306Z,97822.91
2019-02-04T01:20:56.404Z,97824.37
2019-02-04T01:23:25.522Z,97828.20
2019-02-04T01:25:54.618Z,97830.25
2019-02-04T01:28:23.733Z,97827.95
2019-02-04T01:30:53.214Z,97832.06
2019-02-04T01:33:22.343Z,97841.75
2019-02-04T01:35:51.437Z,97842.66
2019-02-04T01:38:20.555Z,97843.37
2019-02-04T01:40:49.654Z,97850.78
2019-02-04T01:43:18.771Z,97857.38
2019-02-04T01:45:48.151Z,97863.47
2019-02-04T01:48:17.285Z,97865.41
2019-02-04T01:50:46.407Z,97865.53
2019-02-04T01:53:15.529Z,97852.63
2019-02-04T01:55:44.620Z,97851.32
2019-02-04T01:58:13.752Z,97862.41
2019-02-04T02:00:42.846Z,97873.67
2019-02-04T02:03:11.963Z,97872.92
2019-02-04T02:05:41.073Z,97871.27
2019-02-04T02:08:10.196Z,97876.34
2019-02-04T02:10:39.296Z,97877.05
2019-02-04T02:13:08.408Z,97880.61
2019-02-04T02:15:37.499Z,97876.20
2019-02-04T02:18:06.621Z,97875.81
2019-02-04T02:20:35.723Z,97872.77
2019-02-04T02:23:04.889Z,97877.41
2019-02-04T02:25:33.987Z,97876.93
2019-02-04T02:28:03.472Z,97867.66
2019-02-04T02:30:33.614Z,97865.23
2019-02-04T02:33:02.817Z,97871.53
2019-02-04T02:35:31.935Z,97871.97
2019-02-04T02:38:01.037Z,97872.05
2019-02-04T02:40:32.135Z,97882.68
2019-02-04T02:43:01.621Z,97873.42
2019-02-04T02:45:31.130Z,97869.53
2019-02-04T02:48:00.239Z,97863.36
2019-02-04T02:50:29.387Z,97861.16
2019-02-04T02:52:58.485Z,97850.69
2019-02-04T02:55:27.615Z,97853.06
2019-02-04T02:57:56.980Z,97854.25
2019-02-04T03:00:27.653Z,97844.44
2019-02-04T03:02:56.756Z,97853.77
2019-02-04T03:05:26.048Z,97851.11
2019-02-04T03:07:55.156Z,97846.36
2019-02-04T03:10:26.403Z,97850.86
2019-02-04T03:12:55.534Z,97846.34
2019-02-04T03:15:24.664Z,97843.37
2019-02-04T03:17:53.786Z,97840.27
2019-02-04T03:20:22.922Z,97825.45
2019-02-04T03:22:52.031Z,97833.84
2019-02-04T03:25:21.157Z,97837.16
2019-02-04T03:27:50.266Z,97845.38
2019-02-04T03:30:25.130Z,97830.89
2019-02-04T03:32:54.236Z,97835.34
2019-02-04T03:35:23.350Z,97832.25
2019-02-04T03:37:52.708Z,97832.25
2019-02-04T03:40:23.787Z,97842.61
2019-02-04T03:42:52.918Z,97843.80
2019-02-04T03:45:22.002Z,97841.67
2019-02-04T03:48:03.751Z,97844.42
2019-02-04T03:50:21.990Z,97845.41
2019-02-04T03:52:51.704Z,97846.72
2019-02-04T03:55:21.234Z,97850.04
2019-02-04T03:57:50.328Z,97853.83
2019-02-04T04:00:30.922Z,97855.62
2019-02-04T04:03:00.045Z,97847.47
2019-02-04T04:05:29.375Z,97852.03
2019-02-04T04:07:58.469Z,97854.27
2019-02-04T04:10:27.605Z,97858.27
2019-02-04T04:12:56.701Z,97861.79
2019-02-04T04:15:25.826Z,97872.15
2019-02-04T04:17:54.946Z,97880.55
2019-02-04T04:20:24.080Z,97878.88
2019-02-04T04:22:53.178Z,97879.02
2019-02-04T04:25:22.305Z,97878.88
2019-02-04T04:27:51.412Z,97877.91
2019-02-04T04:30:22.743Z,97882.83
2019-02-04T04:32:51.834Z,97879.21
2019-02-04T04:35:21.027Z,97871.61
2019-02-04T04:37:50.122Z,97868.69
2019-02-04T04:40:19.239Z,97868.69
2019-02-04T04:42:48.336Z,97870.30
2019-02-04T04:45:19.045Z,97871.61
2019-02-04T04:47:48.522Z,97869.88
2019-02-04T04:50:17.759Z,97868.38
2019-02-04T04:52:46.879Z,97862.33
2019-02-04T04:55:18.613Z,97859.50
2019-02-04T04:57:47.724Z,97855.83
2019-02-04T05:00:19.430Z,97857.96
2019-02-04T05:02:48.545Z,97854.88
2019-02-04T05:05:17.641Z,97849.95
2019-02-04T05:07:46.776Z,97846.82
2019-02-04T05:10:17.124Z,97847.59
2019-02-04T05:12:46.345Z,97836.71
2019-02-04T05:15:17.808Z,97838.98
2019-02-04T05:17:46.928Z,97834.70
2019-02-04T05:20:16.388Z,97835.98
2019-02-04T05:22:45.702Z,97828.08
2019-02-04T05:25:14.973Z,97836.95
2019-02-04T05:27:44.109Z,97836.57
2019-02-04T05:30:15.629Z,97835.11
2019-02-04T05:32:44.765Z,97832.75
2019-02-04T05:35:13.957Z,97828.25
2019-02-04T05:37:43.078Z,97837.89
2019-02-04T05:40:13.645Z,97841.90
2019-02-04T05:42:42.752Z,97843.47
2019-02-04T05:45:13.536Z,97845.27
2019-02-04T05:47:42.663Z,97845.58
2019-02-04T05:50:13.749Z,97859.89
2019-02-04T05:52:42.874Z,97857.09
2019-02-04T05:55:12.782Z,97853.97
2019-02-04T05:57:42.181Z,97849.59
2019-02-04T06:00:14.235Z,97858.09
2019-02-04T06:02:43.351Z,97852.41
2019-02-04T06:05:12.797Z,97856.44
2019-02-04T06:07:41.908Z,97864.81
2019-02-04T06:10:11.147Z,97869.80
2019-02-04T06:12:40.263Z,97872.44
2019-02-04T06:15:10.267Z,97885.41
2019-02-04T06:17:39.385Z,97891.37
2019-02-04T06:20:10.873Z,97890.81
2019-02-04T06:22:39.991Z,97885.78
2019-02-04T06:25:09.365Z,97890.48
2019-02-04T06:27:38.490Z,97892.05
2019-02-04T06:30:08.321Z,97896.75
2019-02-04T06:32:37.450Z,97906.27
2019-02-04T06:35:06.778Z,97901.38
2019-02-04T06:37:35.902Z,97902.95
2019-02-04T06:40:06.190Z,97907.89
2019-02-04T06:42:35.304Z,97907.95
2019-02-04T06:45:05.204Z,97912.87
2019-02-04T06:47:34.331Z,97908.59
2019-02-04T06:50:03.469Z,97909.27
2019-02-04T06:52:32.592Z,97913.19
2019-02-04T06:55:02.193Z,97916.99
2019-02-04T06:57:31.317Z,97917.22
2019-02-04T07:00:00.500Z,97923.41
2019-02-04T07:02:29.630Z,97926.44
2019-02-04T07:04:58.729Z,97914.72
2019-02-04T07:07:27.823Z,97917.84
2019-02-04T07:09:57.132Z,97916.17
2019-02-04T07:12:26.225Z,97916.23
2019-02-04T07:14:55.345Z,97917.67
2019-02-04T07:17:24.432Z,97916.75
2019-02-04T07:19:53.560Z,97912.53
2019-02-04T07:22:22.724Z,97916.74
2019-02-04T07:24:52.087Z,97910.84
2019-02-04T07:27:22.510Z,97910.70
2019-02-04T07:29:51.775Z,97911.94
2019-02-04T07:32:20.891Z,97913.33
2019-02-04T07:34:50.022Z,97901.86
2019-02-04T07:37:19.123Z,97897.37
2019-02-04T07:39:48.417Z,97892.98
2019-02-04T07:42:17.533Z,97889.75
2019-02-04T07:44:46.908Z,97887.98
2019-02-04T07:47:16.000Z,97885.22
2019-02-04T07:49:45.136Z,97886.12
2019-02-04T07:52:14.239Z,97890.14
2019-02-04T07:54:43.630Z,97895.39
2019-02-04T07:57:12.722Z,97886.59
2019-02-04T07:59:41.843Z,97879.99
2019-02-04T08:02:10.935Z,97879.42
2019-02-04T08:04:40.046Z,97878.73
2019-02-04T08:07:09.134Z,97878.45
2019-02-04T08:09:38.419Z,97878.53
2019-02-04T08:12:07.501Z,97887.73
2019-02-04T08:14:36.611Z,97889.37
2019-02-04T08:17:05.775Z,97889.36
2019-02-04T08:19:46.390Z,97889.14
2019-02-04T08:22:05.726Z,97882.31
2019-02-04T08:24:34.829Z,97884.02
2019-02-04T08:27:03.920Z,97870.16
2019-02-04T08:32:28.560Z,97874.88
2019-02-04T08:34:57.665Z,97881.48
2019-02-04T08:37:26.745Z,97886.84
2019-02-04T08:39:55.855Z,97885.89
2019-02-04T08:42:24.936Z,97896.70
2019-02-04T08:44:54.041Z,97896.95
2019-02-04T08:47:24.175Z,97896.95
2019-02-04T08:49:58.433Z,97907.98
2019-02-04T08:52:24.256Z,97914.03
2019-02-04T08:54:53.361Z,97916.02
2019-02-04T08:57:22.448Z,97912.91
2019-02-04T08:59:51.562Z,97920.30
2019-02-04T09:02:20.649Z,97908.25
2019-02-04T09:04:50.040Z,97906.92
2019-02-04T09:07:19.121Z,97902.69
2019-02-04T09:09:48.266Z,97902.81
2019-02-04T09:12:17.321Z,97903.71
2019-02-04T09:14:46.432Z,97902.52
2019-02-04T09:17:15.600Z,97903.64
2019-02-04T09:19:45.065Z,97906.39
2019-02-04T09:22:14.173Z,97913.32
2019-02-04T09:24:43.246Z,97893.61
2019-02-04T09:27:12.394Z,97901.73
2019-02-04T09:29:41.480Z,97895.55
2019-02-04T09:32:10.590Z,97888.34
2019-02-04T09:34:39.688Z,97891.55
2019-02-04T09:37:09.062Z,97888.59
2019-02-04T09:39:38.950Z,97882.20
2019-02-04T09:42:08.060Z,97887.64
2019-02-04T09:44:37.148Z,97896.67
2019-02-04T09:47:06.255Z,97880.75
2019-02-04T09:49:35.390Z,97873.39
2019-02-04T09:52:04.474Z,97868.91
2019-02-04T09:54:33.562Z,97866.56
2019-02-04T09:57:02.671Z,97865.61
2019-02-04T09:59:31.757Z,97860.14
2019-02-04T10:02:00.939Z,97859.12
2019-02-04T10:04:30.037Z,97860.63
2019-02-04T10:06:59.151Z,97853.67
2019-02-04T10:09:28.243Z,97856.78
2019-02-04T10:11:57.341Z,97865.09
2019-02-04T10:14:26.432Z,97860.15
2019-02-04T10:16:55.575Z,97854.04
2019-02-04T10:19:24.630Z,97845.13
2019-02-04T10:21:54.082Z,97846.26
2019-02-04T10:24:23.256Z,97848.42
2019-02-04T10:26:52.335Z,97856.03
2019-02-04T10:29:22.211Z,97844.02
2019-02-04T10:31:51.311Z,97852.31
2019-02-04T10:34:20.828Z,97841.98
2019-02-04T10:36:49.903Z,97855.45
2019-02-04T10:39:19.002Z,97849.72
2019-02-04T10:41:48.108Z,97843.63
2019-02-04T10:44:17.207Z,97843.22
2019-02-04T10:46:46.282Z,97844.08
2019-02-04T10:49:15.657Z,97833.16
2019-02-04T10:51:44.852Z,97834.86
2019-02-04T10:54:13.933Z,97828.73
2019-02-04T10:56:43.002Z,97828.14
2019-02-04T10:59:12.111Z,97818.39
2019-02-04T11:01:41.216Z,97834.78
2019-02-04T11:04:10.324Z,97820.65
2019-02-04T11:06:39.390Z,97820.58
2019-02-04T11:09:10.099Z,97828.13
2019-02-04T11:11:39.178Z,97818.44
2019-02-04T11:14:08.606Z,97826.75
2019-02-04T11:16:37.681Z,97812.30
2019-02-04T11:19:07.477Z,97821.36
2019-02-04T11:21:36.565Z,97818.92
2019-02-04T11:24:06.229Z,97809.66
2019-02-04T11:26:35.370Z,97804.92
2019-02-04T11:29:04.663Z,97795.88
2019-02-04T11:31:33.789Z,97798.73
2019-02-04T11:34:03.147Z,97797.92
2019-02-04T11:36:32.226Z,97799.76
2019-02-04T11:39:01.320Z,97800.05
2019-02-04T11:41:30.403Z,97794.60
2019-02-04T11:43:59.565Z,97794.27
2019-02-04T11:46:28.717Z,97792.44
2019-02-04T11:48:57.991Z,97785.16
2019-02-04T11:51:27.094Z,97787.92
2019-02-04T11:53:56.198Z,97786.30
2019-02-04T11:56:25.277Z,97779.95
2019-02-04T11:58:54.395Z,97780.20
2019-02-04T12:01:23.490Z,97772.98
2019-02-04T12:03:52.778Z,97764.69
2019-02-04T12:06:21.862Z,97767.30
2019-02-04T12:08:50.966Z,97757.83
2019-02-04T12:11:21.544Z,97767.28
2019-02-04T12:13:50.633Z,97762.44
2019-02-04T12:16:19.722Z,97745.23
2019-02-04T12:18:48.920Z,97750.32
2019-02-04T12:21:21.620Z,97753.03
2019-02-04T12:23:48.856Z,97741.55
2019-02-04T12:26:17.960Z,97750.05
2019-02-04T12:28:47.083Z,97758.34
2019-02-04T12:31:16.182Z,97772.70
2019-02-04T12:33:45.271Z,97745.63
2019-02-04T12:36:14.383Z,97752.17
2019-02-04T12:38:43.469Z,97752.70
2019-02-04T12:41:12.587Z,97744.92
2019-02-04T12:43:41.680Z,97745.48
2019-02-04T12:46:10.901Z,97730.91
2019-02-04T12:48:40.079Z,97737.24
2019-02-04T12:51:09.228Z,97741.95
2019-02-04T12:53:38.332Z,97741.85
2019-02-04T12:56:07.454Z,97731.25
2019-02-04T12:58:36.565Z,97732.98
2019-02-04T13:01:06.370Z,97713.80
2019-02-04T13:03:35.478Z,97709.64
2019-02-04T13:06:06.050Z,97717.67
2019-02-04T13:08:35.138Z,97716.11
2019-02-04T13:11:04.350Z,97730.29
2019-02-04T13:13:33.447Z,97734.05
2019-02-04T13:16:02.549Z,97726.97
2019-02-04T13:18:31.639Z,97727.80
2019-02-04T13:21:00.756Z,97720.49
2019-02-04T13:23:29.859Z,97723.16
2019-02-04T13:25:58.987Z,97720.23
2019-02-04T13:28:28.105Z,97709.31
2019-02-04T13:30:57.188Z,97719.72
2019-02-04T13:33:26.269Z,97721.63
2019-02-04T13:35:55.378Z,97714.55
2019-02-04T13:38:24.457Z,97713.56
2019-02-04T13:40:53.561Z,97713.39
2019-02-04T13:43:22.641Z,97713.92
2019-02-04T13:45:51.754Z,97712.63
2019-02-04T13:48:20.854Z,97704.70
2019-02-04T13:50:49.988Z,97702.45
2019-02-04T13:53:19.078Z,97705.33
2019-02-04T13:55:48.160Z,97709.34
2019-02-04T13:58:17.263Z,97710.67
2019-02-04T14:00:46.629Z,97709.80
2019-02-04T14:03:17.888Z,97701.02
2019-02-04T14:05:46.544Z,97704.59
2019-02-04T14:08:15.650Z,97704.12
2019-02-04T14:10:46.191Z,97706.55
2019-02-04T14:13:15.431Z,97708.90
2019-02-04T14:15:44.619Z,97698.97
2019-02-04T14:18:13.728Z,97703.21
2019-02-04T14:20:42.817Z,97695.84
2019-02-04T14:23:11.917Z,97700.92
2019-02-04T14:25:41.000Z,97699.00
2019-02-04T14:28:10.107Z,97688.97
2019-02-04T14:30:39.583Z,97682.34
2019-02-04T14:33:08.832Z,97688.98
2019-02-04T14:35:57.009Z,97688.75
2019-02-04T14:38:26.133Z,97694.10
2019-02-04T14:40:55.227Z,97694.51
2019-02-04T14:43:28.740Z,97688.17
2019-02-04T14:46:23.226Z,97689.89
2019-02-04T14:49:21.626Z,97691.77
2019-02-04T14:52:43.689Z,97691.13
2019-02-04T14:55:48.971Z,97691.66
2019-02-04T14:58:55.081Z,97692.90
2019-02-04T15:02:09.961Z,97684.84
2019-02-04T15:04:56.605Z,97690.09
2019-02-04T15:08:33.716Z,97686.50
2019-02-04T15:11:36.690Z,97678.66
2019-02-04T15:14:37.203Z,97692.16
2019-02-04T15:17:16.915Z,97689.98
2019-02-04T15:20:29.843Z,97693.11
2019-02-04T15:23:34.170Z,97699.34
2019-02-04T15:26:37.284Z,97697.78
2019-02-04T15:29:14.611Z,97701.53
2019-02-04T15:32:17.246Z,97697.23
2019-02-04T15:35:18.680Z,97695.56
2019-02-04T15:38:13.936Z,97699.64
2019-02-04T15:41:00.407Z,97700.97
2019-02-04T15:44:02.142Z,97696.05
2019-02-04T15:47:05.754Z,97701.09
2019-02-04T15:50:16.373Z,97703.53
2019-02-04T15:52:45.941Z,97710.92
2019-02-04T15:55:17.878Z,97716.43
2019-02-04T15:57:46.962Z,97706.78
2019-02-04T16:00:17.215Z,97708.63
2019-02-04T16:02:46.353Z,97703.48
2019-02-04T16:05:15.471Z,97706.41
2019-02-04T16:07:44.671Z,97702.13
2019-02-04T16:10:16.034Z,97698.89
2019-02-04T16:12:47.745Z,97702.52
2019-02-04T16:15:16.437Z,97705.23
2019-02-04T16:17:45.524Z,97714.33
2019-02-04T16:20:20.171Z,97715.75
2019-02-04T16:22:57.737Z,97716.88
2019-02-04T16:25:20.109Z,97702.95
2019-02-04T16:27:49.194Z,97703.62
2019-02-04T16:30:19.922Z,97702.20
2019-02-04T16:32:49.117Z,97702.45
2019-02-04T16:35:18.773Z,97698.61
2019-02-04T16:37:48.491Z,97691.72
2019-02-04T16:40:19.268Z,97698.49
2019-02-04T16:42:48.365Z,97700.10
2019-02-04T16:45:18.693Z,97698.16
2019-02-04T16:47:47.783Z,97693.21
2019-02-04T16:50:22.565Z,97685.94
2019-02-04T16:52:51.661Z,97685.57
2019-02-04T16:55:20.759Z,97676.08
2019-02-04T16:57:49.851Z,97685.87
2019-02-04T17:00:21.598Z,97693.54
2019-02-04T17:02:50.701Z,97695.23
2019-02-04T17:05:20.214Z,97686.80
2019-02-04T17:07:49.424Z,97694.56
2019-02-04T17:10:19.548Z,97693.13
2019-02-04T17:12:48.658Z,97700.41
2019-02-04T17:15:17.965Z,97697.78
2019-02-04T17:17:47.420Z,97708.80
2019-02-04T17:20:22.891Z,97716.44
2019-02-04T17:22:52.007Z,97708.91
2019-02-04T17:25:21.098Z,97708.78
2019-02-04T17:27:50.216Z,97706.86
2019-02-04T17:30:21.645Z,97714.81
2019-02-04T17:32:50.788Z,97714.83
2019-02-04T17:35:19.878Z,97714.90
2019-02-04T17:37:48.996Z,97716.06
2019-02-04T17:40:20.822Z,97716.57
2019-02-04T17:42:50.357Z,97724.53
2019-02-04T17:45:19.446Z,97727.98
2019-02-04T17:47:49.339Z,97723.05
2019-02-04T17:50:19.335Z,97718.22
2019-02-04T17:52:48.837Z,97716.48
2019-02-04T17:55:19.907Z,97711.12
2019-02-04T17:57:49.019Z,97710.73
2019-02-04T18:00:35.617Z,97710.44
2019-02-04T18:03:05.185Z,97701.72
2019-02-04T18:05:34.325Z,97694.23
2019-02-04T18:08:03.438Z,97690.77
2019-02-04T18:10:33.946Z,97689.94
2019-02-04T18:13:03.053Z,97697.36
2019-02-04T18:15:32.141Z,97693.55
2019-02-04T18:18:01.257Z,97691.92
2019-02-04T18:20:30.427Z,97692.22
2019-02-04T18:22:59.636Z,97690.19
2019-02-04T18:25:29.000Z,97680.52
2019-02-04T18:27:58.100Z,97679.62
2019-02-04T18:30:27.586Z,97674.88
2019-02-04T18:32:56.815Z,97682.72
2019-02-04T18:35:26.288Z,97671.20
2019-02-04T18:37:55.390Z,97677.48
2019-02-04T18:40:24.588Z,97681.60
2019-02-04T18:42:53.985Z,97689.36
2019-02-04T18:45:25.141Z,97687.01
2019-02-04T18:47:54.255Z,97689.95
2019-02-04T18:50:24.432Z,97680.70
2019-02-04T18:52:53.608Z,97672.41
2019-02-04T18:55:30.780Z,97679.27
2019-02-04T18:57:59.894Z,97680.30
2019-02-04T19:00:29.786Z,97672.04
2019-02-04T19:02:59.603Z,97675.00
2019-02-04T19:05:28.698Z,97678.80
2019-02-04T19:07:57.818Z,97678.06
2019-02-04T19:10:26.905Z,97684.21
2019-02-04T19:12:56.020Z,97688.88
2019-02-04T19:15:25.286Z,97688.34
2019-02-04T19:17:56.646Z,97689.82
2019-02-04T19:20:25.836Z,97695.94
2019-02-04T19:22:54.926Z,97688.34
2019-02-04T19:25:24.054Z,97686.20
2019-02-04T19:27:53.279Z,97686.81
2019-02-04T19:30:58.311Z,97683.52
2019-02-04T19:33:27.408Z,97679.55
2019-02-04T19:35:56.492Z,97662.99
2019-02-04T19:38:25.604Z,97662.33
2019-02-04T19:40:54.973Z,97655.95
2019-02-04T19:43:24.081Z,97657.86
2019-02-04T19:45:53.171Z,97650.39
2019-02-04T19:48:22.278Z,97660.06
2019-02-04T19:50:51.385Z,97664.36
2019-02-04T19:53:22.761Z,97663.03
2019-02-04T19:55:51.304Z,97653.28
2019-02-04T19:58:20.400Z,97659.06
2019-02-04T20:00:49.511Z,97648.50
2019-02-04T20:03:18.658Z,97652.79
2019-02-04T20:05:50.993Z,97646.81
2019-02-04T20:08:18.580Z,97647.75
2019-02-04T20:10:48.077Z,97641.97
2019-02-04T20:13:17.167Z,97644.28
2019-02-04T20:15:46.285Z,97642.46
2019-02-04T20:18:16.265Z,97640.26
2019-02-04T20:20:45.381Z,97633.99
2019-02-04T20:23:14.470Z,97634.86
2019-02-04T20:25:43.585Z,97638.50
2019-02-04T20:28:12.675Z,97634.36
2019-02-04T20:30:45.866Z,97637.78
2019-02-04T20:33:13.326Z,97634.81
2019-02-04T20:35:42.443Z,97633.94
2019-02-04T20:38:11.589Z,97638.78
2019-02-04T20:40:40.727Z,97635.64
2019-02-04T20:43:10.228Z,97631.50
2019-02-04T20:45:39.340Z,97630.19
2019-02-04T20:48:10.704Z,97633.82
2019-02-04T20:50:40.771Z,97639.39
2019-02-04T20:53:09.872Z,97632.13
2019-02-04T20:55:38.981Z,97648.14
2019-02-04T20:58:08.103Z,97648.81
2019-02-04T21:00:37.325Z,97658.39
2019-02-04T21:03:06.571Z,97656.17
2019-02-04T21:05:35.774Z,97665.73
2019-02-04T21:08:05.768Z,97661.75
2019-02-04T21:10:34.870Z,97657.58
2019-02-04T21:13:03.963Z,97653.77
2019-02-04T21:15:33.065Z,97649.48
2019-02-04T21:18:02.149Z,97654.49
2019-02-04T21:20:31.350Z,97660.33
2019-02-04T21:23:00.453Z,97661.05
2019-02-04T21:25:29.542Z,97658.08
2019-02-04T21:27:58.650Z,97654.72
2019-02-04T21:30:29.656Z,97652.49
2019-02-04T21:32:58.803Z,97668.03
2019-02-04T21:35:27.893Z,97666.38
2019-02-04T21:37:57.108Z,97676.63
2019-02-04T21:40:26.569Z,97678.27
2019-02-04T21:42:55.669Z,97677.63
2019-02-04T21:45:24.788Z,97676.63
2019-02-04T21:47:53.889Z,97669.34
2019-02-04T21:50:24.358Z,97666.77
2019-02-04T21:52:53.590Z,97666.55
2019-02-04T21:55:23.447Z,97672.05
2019-02-04T21:57:52.684Z,97664.06
2019-02-04T22:00:29.701Z,97667.05
2019-02-04T22:02:58.915Z,97670.06
2019-02-04T22:05:29.556Z,97670.06
2019-02-04T22:07:58.765Z,97676.95
2019-02-04T22:10:28.641Z,97678.27
2019-02-04T22:12:57.856Z,97683.50
2019-02-04T22:15:26.950Z,97685.38
2019-02-04T22:17:56.061Z,97691.67
2019-02-04T22:20:25.145Z,97689.63
2019-02-04T22:22:54.256Z,97688.60
2019-02-04T22:25:23.981Z,97688.98
2019-02-04T22:27:53.234Z,97688.14
2019-02-04T22:30:24.128Z,97690.41
2019-02-04T22:32:53.247Z,97686.70
2019-02-04T22:35:22.333Z,97694.27
2019-02-04T22:37:51.458Z,97693.53
2019-02-04T22:40:25.636Z,97702.59
2019-02-04T22:42:55.638Z,97701.27
2019-02-04T22:45:24.830Z,97697.30
2019-02-04T22:47:53.951Z,97701.77
2019-02-04T22:50:27.790Z,97700.97
2019-02-04T22:52:57.233Z,97685.88
2019-02-04T22:55:31.970Z,97689.63
2019-02-04T22:57:57.176Z,97686.72
2019-02-04T23:00:44.003Z,97686.48
2019-02-04T23:03:13.760Z,97692.23
2019-02-04T23:05:42.848Z,97690.23
2019-02-04T23:08:11.959Z,97685.13
2019-02-04T23:10:41.045Z,97688.85
2019-02-04T23:13:10.158Z,97680.92
2019-02-04T23:15:39.240Z,97680.09
2019-02-04T23:18:08.737Z,97684.27
2019-02-04T23:20:37.826Z,97671.99
2019-02-04T23:23:06.932Z,97674.19
2019-02-04T23:25:43.133Z,97678.95
2019-02-04T23:28:07.558Z,97685.21
2019-02-04T23:30:36.652Z,97680.25
2019-02-04T23:33:06.053Z,97681.20
2019-02-04T23:35:35.271Z,97685.13
2019-02-04T23:38:05.356Z,97694.36
2019-02-04T23:40:34.580Z,97686.77
2019-02-04T23:43:03.769Z,97688.20
2019-02-04T23:45:32.879Z,97686.55
2019-02-04T23:48:02.243Z,97687.33
2019-02-04T23:50:31.355Z,97682.69
2019-02-04T23:53:00.474Z,97680.77
2019-02-04T23:55:29.578Z,97677.47
2019-02-04T23:57:58.678Z,97674.81
